Saturday, January 20, 2018, 3:29 AM GMT
Back to Local

CYYB, North Bay, Ont.

Location: , , Canada Lat: 46.35
Local Time: 3:29 AM GMT ( 3:29 GMT) Lon: -79.433
Time Zone: GMT Elev: 1174 ft

Show me the last for .
Show Decoded

2018-01-20 03:00 METAR CYYB 200300Z 22014G21KT 10SM SCT016 OVC085 M02/M04 A2947 RMK SC4AC4 LAST
                 STFD OBS/NEXT 201200 UTC SLP999 =
2018-01-20 02:24 METAR CYYB 200224Z 21017G23KT 6SM -PL BR OVC016 M02/M03 A2947 RMK SC8 SLP001 =
2018-01-20 02:00 METAR CYYB 200200Z 21018KT 6SM BR OVC016 M02/M03 A2948 RMK SC8 SLP003 =
2018-01-20 01:00 METAR CYYB 200100Z 21018KT 4SM BR OVC008 M03/M03 A2951 RMK SC8 SLP014 =
2018-01-20 00:00 METAR CYYB 200000Z 21018G24KT 3SM BR OVC006 M03/M03 A2954 RMK SF8 SLP023 =
2018-01-19 23:00 METAR CYYB 192300Z 21018G25KT 2 1/2SM BR OVC005 M02/M03 A2957 RMK FG3SF5 SLP033
                 =
2018-01-19 22:00 METAR CYYB 192200Z 21017KT 2SM BR OVC004 M02/M02 A2959 RMK FG4SF4 SLP041 =
2018-01-19 21:00 METAR CYYB 192100Z 22018KT 2 1/2SM BR OVC005 M02/M02 A2960 RMK FG3SF5 SLP045 =
2018-01-19 20:00 METAR CYYB 192000Z 22015G21KT 2 1/2SM BR OVC005 M02/M02 A2960 RMK FG3SF5 SLP044
                 =
2018-01-19 19:37 METAR CYYB 191937Z 22015G24KT 2SM BR OVC004 M02/M02 A2960 RMK FG3SF5 SLP043 =
2018-01-19 19:00 METAR CYYB 191900Z 22017G22KT 1SM R08/P6000FT/N BR VV002 M02/M02 A2961 RMK FG8
                 SLP046 =
2018-01-19 18:32 METAR CYYB 191832Z 21018G24KT 3/4SM R08/2600VP6000FT/N BR VV002 M01/M01 A2963
                 RMK FG8 SLP054 =
2018-01-19 18:08 METAR CYYB 191808Z 22014G20KT 1/4SM R08/3500V6000FT/D FZFG VV002 M01/M01 A2963
                 RMK FG8 SLP055 =
2018-01-19 18:00 METAR CYYB 191800Z 22013G20KT 1SM R08/5500VP6000FT/D BR VV002 M01/M01 A2963 RMK
                 FG8 SLP055 =
2018-01-19 17:35 METAR CYYB 191735Z 21014G19KT 1SM R08/6000FT/D BR VV002 M02/M02 A2964 RMK FG8
                 SLP058 =
2018-01-19 17:07 METAR CYYB 191707Z 22012G19KT 3/4SM R08/5500FT/U BR VV001 M02/M02 A2966 RMK FG8
                 PRESFR SLP063 =
2018-01-19 17:00 METAR CYYB 191700Z 22011G18KT 3/8SM R08/4500FT/N FZFG VV001 M02/M02 A2967 RMK
                 FG8 SLP067 =
2018-01-19 16:12 METAR CYYB 191612Z 21011G16KT 1/4SM R08/1800FT/N FZFG VV001 M03/M03 A2969 RMK
                 FG8 SLP075 =
2018-01-19 16:00 METAR CYYB 191600Z 21012KT 1/8SM R08/1600FT/N FZFG VV001 M03/M03 A2970 RMK FG8
                 SLP077 =
2018-01-19 15:39 METAR CYYB 191539Z 21011KT 1/8SM R08/1400FT/N FZFG VV001 M03/M03 A2970 RMK FG8
                 SLP079 =
2018-01-19 15:00 METAR CYYB 191500Z 21013KT 1/8SM R08/1200FT/N -FZDZ FZFG VV001 M03/M03 A2971 RMK
                 FG8 SLP082 =
2018-01-19 14:37 METAR CYYB 191437Z 22011KT 1/8SM R08/1200V1600FT/N -FZDZ FZFG VV001 M03/M03
                 A2972 RMK FG8 SLP084 =
2018-01-19 14:15 METAR CYYB 191415Z 21011G18KT 1/4SM R08/2600FT/N -FZDZ FZFG VV001 M04/M04 A2971
                 RMK FG8 SLP081 =
2018-01-19 14:00 METAR CYYB 191400Z 22011KT 1/2SM R08/6000FT/D -FZDZ FZFG VV002 M04/M04 A2971 RMK
                 FG8 SLP082 =
2018-01-19 13:00 METAR CYYB 191300Z 19012KT 1 1/4SM -FZDZ BR OVC002 M05/M05 A2971 RMK FG2ST6
                 SLP081 =
2018-01-19 12:00 METAR CYYB 191200Z 19013KT 1 1/4SM -FZDZ BR OVC002 M05/M05 A2971 RMK FG2ST6
                 SLP081 =
2018-01-19 11:30 METAR CYYB 191130Z 19015KT 1SM R08/P6000FT/U -FZDZ BR OVC002 M05/M05 A2971 RMK
                 FG2ST6 SLP083 =
2018-01-19 11:24 METAR CYYB 191124Z AUTO 19011KT 1 1/4SM -FZRA BR OVC002 M05/M05 A2972 RMK ICG
                 SLP085 =
2018-01-19 11:18 METAR CYYB 191118Z AUTO 19011KT 1 1/4SM -FZRA -SN OVC002 M05/M05 A2972 RMK ICG
                 SLP086 =
2018-01-19 11:03 METAR CYYB 191103Z AUTO 20013KT 1 1/4SM -SN OVC002 M05/M05 A2972 RMK ICG SLP085
                 =
2018-01-19 11:00 METAR CYYB 191100Z AUTO 19012KT 1 1/4SM BR OVC002 M05/M05 A2972 RMK ICG SLP085 =
2018-01-19 10:00 METAR CYYB 191000Z AUTO 19009KT 1 1/2SM BR OVC002 M05/M05 A2972 RMK ICG SLP088 =
2018-01-19 09:37 METAR CYYB 190937Z AUTO 19010KT 1 1/2SM BR OVC002 M05/M05 A2973 RMK ICG SLP089 =
2018-01-19 09:00 METAR CYYB 190900Z AUTO 19010G15KT 1 3/4SM BR OVC002 M05/M05 A2972 RMK ICG PAST
                 HR SLP085 =
2018-01-19 08:24 METAR CYYB 190824Z AUTO 20009G16KT 1 1/4SM BR OVC002 M05/M05 A2973 RMK ICG PAST
                 HR SLP091 =
2018-01-19 08:03 METAR CYYB 190803Z AUTO 20009G20KT 1 1/4SM BR OVC002 M05/M05 A2973 RMK ICG
                 SLP090 =
2018-01-19 08:00 METAR CYYB 190800Z AUTO 20011G20KT 1SM R08/3500VP6000FT/ -FZRA BR OVC002 M05/M05
                 A2973 RMK ICG SLP090 =
2018-01-19 07:21 METAR CYYB 190721Z AUTO 22014G20KT 5/8SM R08/3000VP6000FT/ -FZRA BR VV002
                 M04/M04 A2973 RMK ICG SLP091 =
2018-01-19 07:18 METAR CYYB 190718Z AUTO 22013G23KT 1/2SM R08/2600V6000FT/ -FZRA FZFG VV002
                 M04/M04 A2973 RMK ICG SLP091 =
2018-01-19 07:12 METAR CYYB 190712Z AUTO 22013G23KT 3/8SM R08/2800FT/N -FZRA FZFG VV002 M04/M04
                 A2973 RMK ICG INTMT SLP091 =
2018-01-19 07:00 METAR CYYB 190700Z AUTO 21012G21KT 1/4SM R08/1400V2000FT/ -FZRA FZFG VV001
                 M04/M04 A2974 RMK ICG SLP091 =
2018-01-19 06:50 METAR CYYB 190650Z AUTO 21013G20KT 1/4SM R08/1800FT/N -FZRA FZFG VV001 M04/M04
                 A2974 RMK ICG SLP093 =
2018-01-19 06:27 METAR CYYB 190627Z AUTO 21016G23KT 3/8SM R08/1600V2200FT/ -FZRA FZFG VV002
                 M04/M04 A2974 RMK ICG SLP093 =
2018-01-19 06:21 METAR CYYB 190621Z AUTO 21018G23KT 3/8SM R08/1800FT/N -FZRA SN VV002 M04/M04
                 A2974 RMK ICG SLP093 =
2018-01-19 06:16 METAR CYYB 190616Z AUTO 21014G21KT 3/8SM R08/1600V2200FT/ SN VV002 M04/M04 A2974
                 RMK ICG SLP093 =
2018-01-19 06:05 METAR CYYB 190605Z AUTO 20009G18KT 1 1/4SM -FZRA -SN OVC005 M04/M04 A2975 RMK
                 ICG SLP095 =
2018-01-19 06:00 METAR CYYB 190600Z AUTO 20011G18KT 1 1/4SM -SN OVC005 M04/M04 A2974 RMK ICG
                 SLP094 =
2018-01-19 05:54 METAR CYYB 190554Z AUTO 20014KT 1 3/4SM -SN OVC005 M04/M05 A2974 RMK ICG SLP094
                 =
2018-01-19 05:50 METAR CYYB 190550Z AUTO 20011G18KT 2 1/4SM -SN OVC005 M04/M05 A2974 RMK ICG
                 SLP093 =
2018-01-19 05:45 METAR CYYB 190545Z AUTO 19009G17KT 3SM -SN OVC005 M04/M05 A2974 RMK ICG SLP093 =
2018-01-19 05:41 METAR CYYB 190541Z AUTO 19010G17KT 3SM BR OVC005 M04/M05 A2974 RMK ICG SLP092 =
2018-01-19 05:29 METAR CYYB 190529Z AUTO 19012G18KT 3SM BR OVC005 M04/M04 A2973 RMK SLP091 =
2018-01-19 05:27 METAR CYYB 190527Z AUTO 18012G18KT 3SM -SN OVC005 M04/M04 A2974 RMK SLP092 =
2018-01-19 05:15 METAR CYYB 190515Z AUTO 19011G19KT 2SM -SN OVC003 M04/M04 A2974 RMK SLP093 =
2018-01-19 05:00 METAR CYYB 190500Z AUTO 19009KT 1 1/4SM -SN OVC003 M04/M04 A2974 RMK SLP093 =
2018-01-19 04:00 METAR CYYB 190400Z AUTO 19007KT 1 1/4SM -SN OVC003 M04/M04 A2975 RMK ICG PAST HR
                 SLP095 =
2018-01-19 03:54 METAR CYYB 190354Z AUTO 19005KT 1 1/4SM -SN OVC003 M04/M04 A2975 RMK ICG PAST HR
                 SLP095 =

Support USWX by starting your Amazon purchase here.